Time;durP1;ratioP1;P1;durP2;ratioP2;P2;SDS_P1;SDS_P2;PMS_P1;PMS_P2;Temp;Humidity;BMP_temperature;BMP_pressure;BME280_temperature;BME280_humidity;BME280_pressure;Samples;Min_cycle;Max_cycle;Signal;HPM_P1;HPM_P2
2023/08/20 00:02:24;;;;;;;6.50;5.25;;;;;;;-145.00;56.05;72793.13;5067201;28;20045;-73
2023/08/20 00:04:51;;;;;;;11.93;5.30;;;;;;;-145.00;56.21;72801.47;5067500;28;20056;-73
2023/08/20 00:07:18;;;;;;;9.13;5.30;;;;;;;-145.00;56.31;72805.63;5067109;28;20049;-72
2023/08/20 00:09:45;;;;;;;9.00;5.72;;;;;;;-145.00;56.65;72799.38;5067555;28;20074;-73
2023/08/20 00:12:11;;;;;;;8.27;5.00;;;;;;;-145.00;56.64;72799.38;5067442;28;20059;-73
2023/08/20 00:14:58;;;;;;;7.18;5.47;;;;;;;-145.00;56.42;72793.13;5067217;28;20044;-72
2023/08/20 00:17:26;;;;;;;6.57;5.10;;;;;;;-145.00;56.73;72803.53;5067269;28;20057;-72
2023/08/20 00:19:54;;;;;;;9.77;6.32;;;;;;;-145.00;56.90;72805.63;5066978;28;20496;-73
2023/08/20 00:22:22;;;;;;;8.32;5.03;;;;;;;-145.00;56.79;72805.63;5066894;28;20130;-72
2023/08/20 00:24:49;;;;;;;7.40;5.30;;;;;;;-145.00;56.87;72818.13;5067270;28;20048;-73
2023/08/20 00:27:15;;;;;;;9.52;5.43;;;;;;;-145.00;57.11;72832.69;5066903;28;20045;-72
2023/08/20 00:29:42;;;;;;;8.55;6.15;;;;;;;-145.00;57.36;72834.78;5067078;28;20048;-73
2023/08/20 00:32:10;;;;;;;8.02;5.22;;;;;;;-145.00;57.61;72838.94;5066764;28;20041;-72
2023/08/20 00:34:37;;;;;;;8.00;5.55;;;;;;;-145.00;57.59;72834.78;5065998;28;20068;-73
2023/08/20 00:37:04;;;;;;;7.22;5.45;;;;;;;-145.00;57.98;72847.25;5066837;28;20044;-73
2023/08/20 00:39:30;;;;;;;8.20;5.45;;;;;;;-145.00;58.15;72863.91;5067254;28;20048;-72
2023/08/20 00:41:58;;;;;;;9.70;5.85;;;;;;;-145.00;58.13;72863.91;5066736;28;20058;-72
2023/08/20 00:44:24;;;;;;;8.77;6.28;;;;;;;-145.00;58.76;72855.59;5064943;28;20047;-72
2023/08/20 00:46:52;;;;;;;10.43;6.47;;;;;;;-145.00;58.06;72855.59;5066947;28;20050;-73
2023/08/20 00:49:19;;;;;;;7.90;5.70;;;;;;;-145.00;58.28;72855.59;5066158;28;20071;-74
2023/08/20 00:51:46;;;;;;;8.43;5.88;;;;;;;-145.00;58.24;72863.91;5066821;28;20045;-74
2023/08/20 00:54:13;;;;;;;9.57;6.80;;;;;;;-145.00;58.35;72863.91;5065967;28;20047;-74
2023/08/20 00:56:39;;;;;;;8.52;6.43;;;;;;;-145.00;58.17;72866.00;5066911;28;20067;-74
2023/08/20 00:59:06;;;;;;;9.65;6.63;;;;;;;-145.00;58.38;72872.25;5066081;28;20062;-74
2023/08/20 01:01:33;;;;;;;8.38;6.15;;;;;;;-145.00;58.52;72880.56;5066488;28;20044;-74
2023/08/20 01:03:59;;;;;;;7.50;5.93;;;;;;;-145.00;58.88;72872.25;5066491;28;20052;-74
2023/08/20 01:06:37;;;;;;;11.05;6.10;;;;;;;-145.00;58.85;72876.41;5066002;28;20048;-74
2023/08/20 01:09:09;;;;;;;9.90;6.18;;;;;;;-145.00;58.96;72882.66;5066190;28;20144;-74
2023/08/20 01:11:42;;;;;;;8.45;6.28;;;;;;;-145.00;59.80;72915.97;5066523;28;20375;-74
2023/08/20 01:14:15;;;;;;;9.20;6.55;;;;;;;-145.00;59.75;72903.47;5066084;28;20048;-73
2023/08/20 01:16:42;;;;;;;;;;;;;;;-145.00;59.53;72888.91;5067206;28;20053;-74
2023/08/20 01:19:12;;;;;;;9.82;6.32;;;;;;;-145.00;59.17;72893.06;5066160;28;19931;-74
2023/08/20 01:21:44;;;;;;;12.27;6.45;;;;;;;-145.00;59.46;72899.31;5066351;28;20045;-74
2023/08/20 01:24:23;;;;;;;9.02;6.10;;;;;;;-145.00;59.59;72907.63;5065730;28;20514;-74
2023/08/20 01:27:01;;;;;;;10.65;6.22;;;;;;;-145.00;59.80;72909.72;5066405;28;20442;-74
2023/08/20 01:29:30;;;;;;;8.30;6.35;;;;;;;-145.00;59.81;72913.88;5065933;28;20506;-74
2023/08/20 01:31:57;;;;;;;9.55;6.40;;;;;;;-145.00;60.08;72928.44;5066075;28;20052;-74
2023/08/20 01:34:24;;;;;;;8.20;6.57;;;;;;;-145.00;60.26;72928.44;5065659;28;20512;-74
2023/08/20 01:36:50;;;;;;;9.45;6.40;;;;;;;-145.00;60.43;72936.78;5066269;28;20499;-74
2023/08/20 01:39:18;;;;;;;7.63;5.40;;;;;;;-145.00;60.57;72943.03;5065225;28;20079;-74
2023/08/20 01:41:45;;;;;;;8.82;5.70;;;;;;;-145.00;60.41;72938.88;5066219;28;20525;-73
2023/08/20 01:44:11;;;;;;;11.68;6.32;;;;;;;-145.00;60.66;72947.19;5065864;28;20060;-74
2023/08/20 01:46:39;;;;;;;9.07;6.03;;;;;;;-145.00;60.56;72951.34;5069502;28;20048;-74
2023/08/20 01:49:05;;;;;;;10.95;6.55;;;;;;;-145.00;60.68;72947.19;5069035;28;20048;-74
2023/08/20 01:51:32;;;;;;;7.30;5.75;;;;;;;-145.00;60.64;72947.19;5069488;28;20044;-74
2023/08/20 01:53:58;;;;;;;8.27;5.97;;;;;;;-145.00;60.43;72943.03;5069715;28;20049;-74
2023/08/20 01:56:25;;;;;;;8.65;5.90;;;;;;;-145.00;60.58;72947.19;5069229;28;20048;-74
2023/08/20 01:58:51;;;;;;;9.13;5.97;;;;;;;-145.00;60.44;72947.19;5069714;28;20048;-74
2023/08/20 02:01:18;;;;;;;11.98;6.80;;;;;;;-145.00;60.69;72945.09;5069061;28;20049;-74
2023/08/20 02:03:46;;;;;;;7.45;5.93;;;;;;;-145.00;60.73;72945.09;5069490;28;20411;-74
2023/08/20 02:06:13;;;;;;;9.30;6.18;;;;;;;-145.00;60.35;72943.03;5069072;28;20060;-74
2023/08/20 02:08:39;;;;;;;8.02;5.82;;;;;;;-145.00;60.61;72943.03;5069746;28;20041;-74
2023/08/20 02:11:06;;;;;;;7.63;6.07;;;;;;;-145.00;60.78;72943.03;5069214;28;20045;-74
2023/08/20 02:13:33;;;;;;;8.55;6.13;;;;;;;-145.00;60.58;72947.19;5069372;28;20060;-74
2023/08/20 02:16:01;;;;;;;8.40;6.07;;;;;;;-145.00;60.84;72943.03;5069273;28;20044;-74
2023/08/20 02:18:27;;;;;;;8.23;6.05;;;;;;;-145.00;60.62;72938.88;5068988;28;20487;-74
2023/08/20 02:20:55;;;;;;;9.55;6.00;;;;;;;-145.00;60.65;72943.03;5069149;28;20055;-74
2023/08/20 02:23:21;;;;;;;8.05;6.13;;;;;;;-145.00;60.88;72959.69;5069105;28;20087;-74
2023/08/20 02:25:49;;;;;;;8.93;6.32;;;;;;;-145.00;61.19;72970.09;5068985;28;20512;-74
2023/08/20 02:28:15;;;;;;;10.82;6.72;;;;;;;-145.00;61.24;72978.41;5068774;28;20049;-74
2023/08/20 02:30:42;;;;;;;10.60;6.60;;;;;;;-145.00;61.31;72980.50;5068868;28;20052;-74
2023/08/20 02:33:09;;;;;;;10.13;6.22;;;;;;;-145.00;61.19;72980.50;5068663;28;20507;-74
2023/08/20 02:35:36;;;;;;;11.20;6.68;;;;;;;-145.00;60.83;72978.41;5068700;28;20136;-74
2023/08/20 02:38:04;;;;;;;7.97;5.97;;;;;;;-145.00;61.02;72972.16;5068659;28;20057;-74
2023/08/20 02:40:31;;;;;;;9.20;6.18;;;;;;;-145.00;60.79;72974.25;5068853;28;20106;-73
2023/08/20 02:42:57;;;;;;;10.35;6.32;;;;;;;-145.00;60.57;72972.16;5068958;28;20048;-74
2023/08/20 02:45:25;;;;;;;13.50;6.15;;;;;;;-145.00;60.72;72976.34;5068346;28;20064;-74
2023/08/20 02:47:51;;;;;;;8.82;6.32;;;;;;;-145.00;60.78;72972.16;5068774;28;20048;-74
2023/08/20 02:50:18;;;;;;;11.20;6.25;;;;;;;-145.00;60.65;72976.34;5068316;28;20045;-74
2023/08/20 02:52:45;;;;;;;8.23;6.03;;;;;;;-145.00;60.51;72980.50;5068559;28;20051;-74
2023/08/20 02:55:13;;;;;;;8.73;6.03;;;;;;;-145.00;60.83;72980.50;5067957;28;20048;-73
2023/08/20 02:57:40;;;;;;;10.00;6.45;;;;;;;-145.00;61.01;72982.59;5067629;28;20060;-74
2023/08/20 03:00:11;;;;;;;12.40;6.40;;;;;;;-145.00;60.75;72982.59;5067857;28;20048;-74
2023/08/20 03:02:39;;;;;;;10.07;6.53;;;;;;;-145.00;61.10;72986.75;5068267;28;20048;-74
2023/08/20 03:05:06;;;;;;;8.48;5.88;;;;;;;-145.00;61.44;72993.00;5067790;28;20427;-74
2023/08/20 03:07:33;;;;;;;10.40;6.43;;;;;;;-145.00;61.72;72993.00;5068375;28;20074;-74
2023/08/20 03:09:59;;;;;;;7.40;5.85;;;;;;;-145.00;61.84;72993.00;5068491;28;20051;-73
2023/08/20 03:12:27;;;;;;;7.78;5.82;;;;;;;-145.00;61.98;73009.66;5068067;28;20049;-74
2023/08/20 03:14:54;;;;;;;9.57;6.60;;;;;;;-145.00;62.36;73034.63;5067893;28;20416;-74
2023/08/20 03:17:20;;;;;;;9.23;7.28;;;;;;;-145.00;62.73;73055.44;5068869;28;20040;-74
2023/08/20 03:19:55;;;;;;;8.82;6.70;;;;;;;-145.00;62.98;73059.59;5069118;28;20045;-74
2023/08/20 03:22:22;;;;;;;8.25;6.60;;;;;;;-145.00;62.14;73047.13;5069060;28;20462;-74
2023/08/20 03:24:49;;;;;;;9.73;6.45;;;;;;;-145.00;61.87;73034.63;5068101;28;20053;-74
2023/08/20 03:27:16;;;;;;;11.02;6.65;;;;;;;-145.00;61.68;73034.63;5067633;28;20048;-74
2023/08/20 03:29:44;;;;;;;9.18;6.32;;;;;;;-145.00;61.86;73038.78;5068036;28;20047;-74
2023/08/20 03:32:11;;;;;;;9.80;6.18;;;;;;;-145.00;61.99;73038.78;5067343;28;20040;-73
2023/08/20 03:34:37;;;;;;;7.78;5.45;;;;;;;-145.00;62.14;73045.03;5067927;28;20045;-74
2023/08/20 03:37:04;;;;;;;9.20;5.95;;;;;;;-145.00;62.29;73055.44;5067887;28;20059;-74
2023/08/20 03:39:31;;;;;;;7.32;5.80;;;;;;;-145.00;62.29;73051.28;5068656;28;20416;-74
2023/08/20 03:41:58;;;;;;;8.02;5.97;;;;;;;-145.00;62.16;73051.28;5068869;28;20149;-74
2023/08/20 03:44:24;;;;;;;7.88;5.93;;;;;;;-145.00;62.19;73051.28;5069507;28;20503;-74
2023/08/20 03:46:52;;;;;;;7.20;5.82;;;;;;;-145.00;62.37;73053.38;5070148;28;20048;-74
2023/08/20 03:49:19;;;;;;;9.20;5.90;;;;;;;-145.00;62.29;73051.28;5070644;28;20056;-74
2023/08/20 03:51:45;;;;;;;9.52;6.18;;;;;;;-145.00;62.29;73061.69;5072106;28;20048;-74
2023/08/20 03:54:12;;;;;;;8.35;5.82;;;;;;;-145.00;62.27;73067.94;5071167;28;20047;-74
2023/08/20 03:56:38;;;;;;;8.05;6.35;;;;;;;-145.00;62.42;73072.09;5074044;28;20055;-74
2023/08/20 03:59:05;;;;;;;10.20;6.47;;;;;;;-145.00;62.56;73067.94;5073078;28;20048;-74
2023/08/20 04:01:31;;;;;;;9.77;5.90;;;;;;;-145.00;62.51;73061.69;5073441;28;20044;-74
2023/08/20 04:03:59;;;;;;;9.75;5.97;;;;;;;-145.00;62.65;73063.78;5072132;28;20048;-72
2023/08/20 04:06:25;;;;;;;10.70;6.38;;;;;;;-145.00;62.34;73063.78;5072231;28;20052;-72
2023/08/20 04:08:52;;;;;;;8.50;6.35;;;;;;;-145.00;62.20;73059.59;5073079;28;20051;-72
2023/08/20 04:11:18;;;;;;;7.85;5.88;;;;;;;-145.00;62.17;73057.53;5071706;28;20045;-73
2023/08/20 04:13:45;;;;;;;8.48;5.70;;;;;;;-145.00;61.97;73055.44;5070129;28;20507;-73
2023/08/20 04:16:12;;;;;;;9.20;5.60;;;;;;;-145.00;61.79;73055.44;5069299;28;20050;-73
2023/08/20 04:18:38;;;;;;;10.52;6.60;;;;;;;-145.00;61.50;73055.44;5069908;28;20385;-73
2023/08/20 04:21:07;;;;;;;7.22;5.97;;;;;;;-145.00;61.84;73051.28;5069850;28;20051;-73
2023/08/20 04:23:33;;;;;;;8.43;6.03;;;;;;;-145.00;61.85;73051.28;5067720;28;20130;-73
2023/08/20 04:26:00;;;;;;;8.65;5.50;;;;;;;-145.00;62.01;73065.84;5067998;28;20048;-73
2023/08/20 04:28:26;;;;;;;11.80;6.07;;;;;;;-145.00;61.85;73057.53;5070538;28;20045;-73
2023/08/20 04:30:53;;;;;;;9.73;5.90;;;;;;;-145.00;61.96;73047.13;5072938;28;20052;-72
2023/08/20 04:33:20;;;;;;;7.80;5.55;;;;;;;-145.00;62.12;73045.03;5072614;28;20048;-73
2023/08/20 04:35:47;;;;;;;8.65;6.10;;;;;;;-145.00;61.94;73042.97;5071330;28;20492;-73
2023/08/20 04:38:15;;;;;;;8.13;5.90;;;;;;;-145.00;61.99;73034.63;5075637;28;20044;-73
2023/08/20 04:40:41;;;;;;;7.72;5.65;;;;;;;-145.00;61.29;73036.72;5074824;28;20052;-73
2023/08/20 04:43:08;;;;;;;8.85;5.85;;;;;;;-145.00;61.23;73038.78;5074325;28;20052;-72
2023/08/20 04:45:34;;;;;;;7.25;6.05;;;;;;;-145.00;61.28;73042.97;5075001;28;20055;-72
2023/08/20 04:48:01;;;;;;;9.25;5.45;;;;;;;-145.00;61.48;73038.78;5074313;28;20067;-73
2023/08/20 04:50:27;;;;;;;8.50;6.00;;;;;;;-145.00;61.42;73038.78;5067760;28;20049;-72
2023/08/20 04:52:54;;;;;;;9.90;5.90;;;;;;;-145.00;61.49;73038.78;5067229;28;20072;-73
2023/08/20 04:55:22;;;;;;;8.77;5.70;;;;;;;-145.00;61.18;73038.78;5066309;28;20501;-73
2023/08/20 04:57:49;;;;;;;7.47;5.35;;;;;;;-145.00;60.96;73040.88;5065604;28;20052;-73
2023/08/20 05:00:16;;;;;;;6.22;4.88;;;;;;;-145.00;61.21;73034.63;5065774;28;20055;-73
2023/08/20 05:02:43;;;;;;;8.30;5.88;;;;;;;-145.00;61.19;73034.63;5066850;28;20051;-73
2023/08/20 05:05:09;;;;;;;8.20;6.43;;;;;;;-145.00;60.87;73026.31;5066143;28;20045;-73
2023/08/20 05:07:36;;;;;;;8.10;5.72;;;;;;;-145.00;60.77;73038.78;5066949;28;20044;-72
2023/08/20 05:10:03;;;;;;;8.38;6.18;;;;;;;-145.00;60.92;73049.19;5066497;28;20496;-72
2023/08/20 05:12:30;;;;;;;11.63;6.25;;;;;;;-145.00;60.89;73051.28;5067058;28;20043;-72
2023/08/20 05:14:57;;;;;;;7.32;5.15;;;;;;;-145.00;60.80;73045.03;5066274;28;20047;-72
2023/08/20 05:17:23;;;;;;;9.63;6.30;;;;;;;-145.00;60.67;73038.78;5066228;28;20055;-72
2023/08/20 05:19:50;;;;;;;9.32;5.82;;;;;;;-145.00;60.83;73063.78;5067244;28;20047;-72
2023/08/20 05:22:17;;;;;;;8.95;5.82;;;;;;;-145.00;60.26;73055.44;5070118;28;20076;-72
2023/08/20 05:24:43;;;;;;;8.98;5.65;;;;;;;-145.00;59.99;73042.97;5070505;28;20048;-72
2023/08/20 05:27:14;;;;;;;6.75;5.75;;;;;;;-145.00;60.46;73047.13;5070101;28;20051;-72
2023/08/20 05:29:42;;;;;;;8.68;5.85;;;;;;;-145.00;60.44;73038.78;5070517;28;20060;-72
2023/08/20 05:32:08;;;;;;;9.23;5.88;;;;;;;-145.00;61.10;73047.13;5069564;28;20052;-72
2023/08/20 05:34:35;;;;;;;10.20;5.65;;;;;;;-145.00;61.48;73034.63;5070257;28;20071;-72
2023/08/20 05:37:03;;;;;;;7.15;5.55;;;;;;;-145.00;61.36;73030.47;5069537;28;20064;-73
2023/08/20 05:39:31;;;;;;;10.32;5.93;;;;;;;-145.00;61.51;73030.47;5070175;28;20052;-72
2023/08/20 05:41:58;;;;;;;7.47;5.40;;;;;;;-145.00;60.61;73030.47;5070068;28;20048;-72
2023/08/20 05:44:24;;;;;;;7.65;5.28;;;;;;;-145.00;58.35;73038.78;5069463;28;20479;-72
2023/08/20 05:46:52;;;;;;;9.25;4.90;;;;;;;-145.00;57.89;73030.47;5069818;28;20067;-73
2023/08/20 05:49:19;;;;;;;8.40;4.80;;;;;;;-145.00;57.37;73022.13;5069558;28;20048;-72
2023/08/20 05:51:45;;;;;;;8.93;5.40;;;;;;;-145.00;56.72;73017.97;5070003;28;20045;-72
2023/08/20 05:54:12;;;;;;;6.65;4.90;;;;;;;-145.00;55.83;73001.31;5069189;28;20048;-72
2023/08/20 05:56:38;;;;;;;10.65;5.78;;;;;;;-145.00;56.12;72999.22;5069573;28;20047;-72
2023/08/20 05:59:05;;;;;;;10.82;5.30;;;;;;;-145.00;55.13;73001.31;5069187;28;20067;-72
2023/08/20 06:01:32;;;;;;;9.63;4.90;;;;;;;-145.00;54.84;72993.00;5069444;28;20123;-72
2023/08/20 06:04:01;;;;;;;10.00;5.15;;;;;;;-145.00;54.50;72984.66;5069673;28;20053;-72
2023/08/20 06:06:28;;;;;;;8.82;5.03;;;;;;;-145.00;54.04;72986.75;5069365;28;20047;-72
2023/08/20 06:08:54;;;;;;;8.73;5.25;;;;;;;-145.00;54.23;72982.59;5069529;28;20055;-72
2023/08/20 06:11:21;;;;;;;6.20;4.10;;;;;;;-145.00;53.91;72972.16;5069030;28;20044;-72
2023/08/20 06:13:48;;;;;;;6.63;4.32;;;;;;;-145.00;53.18;72976.34;5069659;28;20522;-73
2023/08/20 06:16:14;;;;;;;7.15;4.00;;;;;;;-145.00;52.63;72959.69;5069275;28;20063;-72
2023/08/20 06:18:41;;;;;;;8.07;4.85;;;;;;;-145.00;52.25;72955.50;5070363;28;20047;-72
2023/08/20 06:21:09;;;;;;;6.03;4.40;;;;;;;-145.00;51.91;72943.03;5069516;28;20055;-72
2023/08/20 06:23:35;;;;;;;8.80;4.60;;;;;;;-145.00;52.35;72928.44;5069387;28;20044;-72
2023/08/20 06:26:02;;;;;;;7.88;4.40;;;;;;;-145.00;51.87;72918.03;5069207;28;20059;-72
2023/08/20 06:28:28;;;;;;;11.73;4.65;;;;;;;-145.00;51.44;72907.63;5069400;28;20567;-72
2023/08/20 06:30:55;;;;;;;8.40;4.38;;;;;;;-145.00;52.29;72893.06;5068952;28;20393;-72
2023/08/20 06:33:21;;;;;;;7.65;4.20;;;;;;;-145.00;50.51;72895.16;5068864;28;24237;-72
2023/08/20 06:35:48;;;;;;;7.25;4.18;;;;;;;-145.00;50.45;72880.56;5069189;28;20044;-72
2023/08/20 06:38:15;;;;;;;8.80;4.72;;;;;;;-145.00;50.05;72868.09;5068677;28;20385;-72
2023/08/20 06:40:42;;;;;;;7.32;4.47;;;;;;;-145.00;49.91;72859.75;5068978;28;20738;-72
2023/08/20 06:43:08;;;;;;;9.55;4.55;;;;;;;-145.00;50.13;72851.44;5068391;28;20053;-72
2023/08/20 06:45:35;;;;;;;6.65;4.18;;;;;;;-145.00;50.64;72838.94;5068594;28;20500;-72
2023/08/20 06:48:01;;;;;;;9.35;4.03;;;;;;;-145.00;49.80;72832.69;5068614;28;20045;-72
2023/08/20 06:50:28;;;;;;;8.40;3.90;;;;;;;-145.00;49.38;72824.38;5068752;28;20052;-73
2023/08/20 06:52:54;;;;;;;13.20;4.35;;;;;;;-145.00;49.96;72813.94;5068753;28;20063;-72
2023/08/20 06:55:22;;;;;;;12.52;4.78;;;;;;;-145.00;50.23;72801.47;5067604;28;20535;-72
2023/08/20 06:57:49;;;;;;;7.85;4.35;;;;;;;-145.00;50.13;72780.66;5068868;28;20051;-73
2023/08/20 07:00:16;;;;;;;10.75;3.92;;;;;;;-145.00;49.61;72791.06;5068160;28;20614;-73
2023/08/20 07:02:42;;;;;;;8.35;4.25;;;;;;;-145.00;49.11;72776.47;5068680;28;20044;-72
2023/08/20 07:05:10;;;;;;;6.72;4.38;;;;;;;-145.00;49.64;72786.88;5068042;28;20049;-72
2023/08/20 07:07:36;;;;;;;9.82;4.65;;;;;;;-145.00;49.89;72801.47;5068620;28;20740;-72
2023/08/20 07:10:04;;;;;;;8.82;4.50;;;;;;;-145.00;50.37;72768.16;5068236;28;20743;-72
2023/08/20 07:12:32;;;;;;;8.48;4.30;;;;;;;-145.00;50.16;72741.09;5068654;28;20048;-72
2023/08/20 07:14:58;;;;;;;8.68;5.18;;;;;;;-145.00;49.25;72716.13;5068289;28;20387;-72
2023/08/20 07:17:25;;;;;;;8.57;5.13;;;;;;;-145.00;48.51;72701.53;5067903;28;20045;-72
2023/08/20 07:19:51;;;;;;;11.23;6.13;;;;;;;-145.00;48.24;72676.56;5068572;28;20044;-72
2023/08/20 07:22:18;;;;;;;7.40;4.95;;;;;;;-145.00;47.63;72651.59;5068147;28;20075;-72
2023/08/20 07:24:44;;;;;;;10.07;4.32;;;;;;;-145.00;47.50;72639.09;5068397;28;20048;-72
2023/08/20 07:27:12;;;;;;;8.20;4.38;;;;;;;-145.00;48.56;72641.16;5067390;28;20483;-72
2023/08/20 07:29:41;;;;;;;9.55;4.30;;;;;;;-145.00;47.65;72647.41;5067923;28;20106;-72
2023/08/20 07:32:07;;;;;;;6.32;4.15;;;;;;;-145.00;47.11;72616.19;5067368;28;20407;-72
2023/08/20 07:34:34;;;;;;;7.05;4.03;;;;;;;-145.00;47.24;72543.34;5067784;28;20061;-72
2023/08/20 07:37:01;;;;;;;10.50;4.40;;;;;;;-145.00;44.91;72522.53;5067991;28;20123;-72
2023/08/20 07:39:27;;;;;;;7.25;4.00;;;;;;;-145.00;45.35;72512.09;5067332;28;20052;-74
2023/08/20 07:41:54;;;;;;;10.45;4.55;;;;;;;-145.00;44.59;72493.38;5067879;28;20135;-73
2023/08/20 07:44:20;;;;;;;9.07;4.45;;;;;;;-145.00;43.30;72455.91;5066437;28;20052;-72
2023/08/20 07:46:48;;;;;;;8.05;4.30;;;;;;;-145.00;43.68;72393.47;5067593;28;20519;-72
2023/08/20 07:49:15;;;;;;;9.02;4.60;;;;;;;-145.00;43.11;72297.72;5067164;28;20048;-73
2023/08/20 07:51:41;;;;;;;7.22;4.32;;;;;;;-145.00;43.99;72229.03;5068035;28;20048;-75
2023/08/20 07:54:08;;;;;;;8.20;4.03;;;;;;;-145.00;41.97;72177.00;5067093;28;20048;-75
2023/08/20 07:56:34;;;;;;;7.97;3.85;;;;;;;-145.00;40.32;72129.13;5067400;28;20037;-73
2023/08/20 07:59:01;;;;;;;5.55;3.67;;;;;;;-145.00;40.28;72106.22;5067498;28;20503;-74
2023/08/20 08:01:27;;;;;;;7.95;4.13;;;;;;;-145.00;39.46;72112.47;5066587;28;20043;-75
2023/08/20 08:03:55;;;;;;;10.13;4.10;;;;;;;-145.00;40.17;72139.53;5067389;28;20044;-74
2023/08/20 08:06:23;;;;;;;6.03;3.72;;;;;;;-145.00;40.13;72129.13;5066540;28;20049;-75
2023/08/20 08:08:50;;;;;;;7.78;3.88;;;;;;;-145.00;39.87;72116.63;5067357;28;20045;-75
2023/08/20 08:11:16;;;;;;;6.80;3.40;;;;;;;-145.00;39.72;72050.03;5066369;28;20057;-75
2023/08/20 08:13:43;;;;;;;10.45;3.13;;;;;;;-145.00;37.33;71981.34;5066633;28;20607;-75
2023/08/20 08:16:09;;;;;;;7.60;3.70;;;;;;;-145.00;37.07;71945.94;5066550;28;20048;-75
2023/08/20 08:18:36;;;;;;;7.55;3.58;;;;;;;-145.00;35.53;71908.50;5066900;28;20048;-75
2023/08/20 08:21:04;;;;;;;9.00;3.95;;;;;;;-145.00;35.50;71923.06;5066457;28;20496;-75
2023/08/20 08:23:30;;;;;;;5.75;3.75;;;;;;;-145.00;36.45;71881.44;5066920;28;20072;-74
2023/08/20 08:25:57;;;;;;;6.00;3.20;;;;;;;-145.00;34.37;71852.28;5066709;28;20054;-74
2023/08/20 08:28:23;;;;;;;7.18;3.67;;;;;;;-145.00;35.04;71839.81;5066463;28;20530;-74
2023/08/20 08:30:50;;;;;;;9.48;3.80;;;;;;;-145.00;35.32;71839.81;5066601;28;20055;-75
2023/08/20 08:33:16;;;;;;;5.93;3.30;;;;;;;-145.00;32.81;71802.34;5066070;28;20499;-74
2023/08/20 08:35:42;;;;;;;5.35;3.28;;;;;;;-145.00;33.06;71833.56;5066780;28;20044;-74
2023/08/20 08:38:10;;;;;;;7.20;3.20;;;;;;;-145.00;33.72;71802.34;5066409;28;20056;-75
2023/08/20 08:40:37;;;;;;;6.13;3.40;;;;;;;-145.00;33.69;71804.44;5066497;28;20399;-74
2023/08/20 08:43:04;;;;;;;9.48;3.60;;;;;;;-145.00;34.17;71785.69;5066341;28;20060;-75
2023/08/20 08:45:31;;;;;;;6.53;3.30;;;;;;;-145.00;35.22;71783.63;5066490;28;20048;-74
2023/08/20 08:47:57;;;;;;;9.65;3.78;;;;;;;-145.00;34.62;71785.69;5066779;28;20045;-74
2023/08/20 08:50:24;;;;;;;6.63;3.75;;;;;;;-145.00;34.23;71756.56;5066259;28;20048;-75
2023/08/20 08:52:52;;;;;;;5.82;3.63;;;;;;;-145.00;33.78;71769.03;5066704;28;20048;-74
2023/08/20 08:55:20;;;;;;;5.53;3.15;;;;;;;-145.00;33.93;71760.72;5067187;28;20080;-74
2023/08/20 08:57:47;;;;;;;6.70;3.83;;;;;;;-145.00;33.89;71744.06;5070658;28;20051;-75
2023/08/20 09:00:14;;;;;;;5.72;3.80;;;;;;;-145.00;34.25;71729.50;5069993;28;20074;-74
2023/08/20 09:02:41;;;;;;;7.50;3.72;;;;;;;-145.00;35.00;71781.53;5070368;28;20048;-75
2023/08/20 09:05:08;;;;;;;7.55;3.80;;;;;;;-145.00;35.00;71727.41;5070185;28;20412;-74
2023/08/20 09:07:34;;;;;;;5.28;3.67;;;;;;;-145.00;34.09;71696.22;5070451;28;20048;-74
2023/08/20 09:10:01;;;;;;;5.75;3.58;;;;;;;-145.00;34.83;71681.63;5070689;28;20048;-74
2023/08/20 09:12:29;;;;;;;5.75;3.67;;;;;;;-145.00;33.25;71671.22;5070135;28;20057;-74
2023/08/20 09:15:00;;;;;;;7.75;3.65;;;;;;;-145.00;34.29;71665.00;5070359;28;20055;-74
2023/08/20 09:17:27;;;;;;;5.93;3.50;;;;;;;-145.00;34.64;71652.50;5070131;28;20093;-74
2023/08/20 09:19:56;;;;;;;5.15;3.42;;;;;;;-145.00;33.28;71644.19;5070397;28;20068;-75
2023/08/20 09:22:23;;;;;;;5.93;3.88;;;;;;;-145.00;33.10;71656.66;5069653;28;20056;-74
2023/08/20 09:24:54;;;;;;;8.55;4.03;;;;;;;-145.00;33.09;71619.19;5070088;28;20036;-74
2023/08/20 09:27:21;;;;;;;8.77;3.80;;;;;;;-145.00;33.41;71652.50;5069863;28;20102;-74
2023/08/20 09:29:50;;;;;;;7.40;3.50;;;;;;;-145.00;33.46;71606.72;5070059;28;20048;-74
2023/08/20 09:32:17;;;;;;;6.45;3.67;;;;;;;-145.00;32.96;71577.59;5069623;28;20056;-75
2023/08/20 09:34:44;;;;;;;5.50;3.97;;;;;;;-145.00;32.78;71573.41;5069989;28;20504;-74
2023/08/20 09:37:13;;;;;;;8.13;3.72;;;;;;;-145.00;32.30;71602.56;5069540;28;20063;-74
2023/08/20 09:39:39;;;;;;;5.20;3.70;;;;;;;-145.00;33.71;71567.19;5070110;28;20508;-75
2023/08/20 09:42:07;;;;;;;6.55;3.88;;;;;;;-145.00;33.65;71552.59;5069241;28;20052;-75
2023/08/20 09:44:36;;;;;;;5.15;3.95;;;;;;;-145.00;32.49;71610.88;5069700;28;20514;-75
2023/08/20 09:47:09;;;;;;;5.68;3.80;;;;;;;-145.00;32.42;71600.47;5069333;28;20127;-74
2023/08/20 09:49:38;;;;;;;7.97;4.47;;;;;;;-145.00;33.81;71635.84;5069720;28;20055;-74
2023/08/20 09:52:07;;;;;;;5.05;3.58;;;;;;;-145.00;33.09;71602.56;5069325;28;20045;-75
2023/08/20 09:54:46;;;;;;;5.00;3.85;;;;;;;-145.00;34.23;71606.72;5069559;28;20133;-75
2023/08/20 09:57:21;;;;;;;10.75;3.85;;;;;;;-145.00;33.88;71610.88;5069121;28;20059;-74
2023/08/20 09:59:50;;;;;;;7.47;3.80;;;;;;;-145.00;33.83;71600.47;5069371;28;20048;-74
2023/08/20 10:02:17;;;;;;;6.10;3.80;;;;;;;-145.00;34.45;71594.22;5068730;28;20052;-74
2023/08/20 10:04:44;;;;;;;6.40;3.58;;;;;;;-145.00;34.50;71565.09;5069386;28;20048;-74
2023/08/20 10:07:12;;;;;;;7.50;3.80;;;;;;;-145.00;34.07;71548.44;5068660;28;20056;-75
2023/08/20 10:09:39;;;;;;;6.57;3.80;;;;;;;-145.00;34.32;71548.44;5069203;28;20052;-75
2023/08/20 10:12:07;;;;;;;7.28;3.90;;;;;;;-145.00;33.82;71523.47;5069022;28;20044;-75
2023/08/20 10:14:33;;;;;;;4.63;3.60;;;;;;;-145.00;33.02;71521.38;5069154;28;20059;-74
2023/08/20 10:17:06;;;;;;;4.20;3.47;;;;;;;-145.00;33.30;71519.31;5069209;28;20052;-75
2023/08/20 10:19:34;;;;;;;6.50;3.75;;;;;;;-145.00;33.62;71502.66;5069325;28;20037;-74
2023/08/20 10:22:03;;;;;;;6.88;3.42;;;;;;;-145.00;34.12;71498.50;5069029;28;20056;-74
2023/08/20 10:24:32;;;;;;;7.57;4.00;;;;;;;-145.00;33.18;71506.81;5068746;28;20049;-74
2023/08/20 10:27:09;;;;;;;6.72;4.35;;;;;;;-145.00;34.16;71540.13;5068874;28;20496;-75
2023/08/20 10:29:37;;;;;;;7.28;4.32;;;;;;;-145.00;33.21;71519.31;5068766;28;20663;-74
2023/08/20 10:32:06;;;;;;;5.60;4.00;;;;;;;-145.00;33.72;71506.81;5068466;28;20125;-75
2023/08/20 10:34:35;;;;;;;6.45;4.15;;;;;;;-145.00;33.30;71515.16;5068609;28;20044;-74
2023/08/20 10:37:03;;;;;;;6.72;4.57;;;;;;;-145.00;33.16;71527.63;5068649;28;20063;-74
2023/08/20 10:39:30;;;;;;;7.00;4.18;;;;;;;-145.00;33.91;71531.78;5067950;28;20052;-75
2023/08/20 10:42:09;;;;;;;13.00;4.93;;;;;;;-145.00;34.39;71617.13;5068048;28;20428;-74
2023/08/20 10:44:57;;;;;;;6.57;4.60;;;;;;;-145.00;34.81;71556.78;5068732;28;20097;-74
2023/08/20 10:47:24;;;;;;;5.80;3.95;;;;;;;-145.00;33.21;71531.78;5068444;28;20044;-74
2023/08/20 10:49:53;;;;;;;6.00;4.43;;;;;;;-145.00;32.48;71513.06;5068426;28;20068;-74
2023/08/20 10:52:19;;;;;;;7.00;4.15;;;;;;;-145.00;32.94;71486.00;5068109;28;20079;-74
2023/08/20 10:54:46;;;;;;;4.70;3.88;;;;;;;-145.00;32.97;71456.88;5067284;28;20531;-75
2023/08/20 10:57:12;;;;;;;6.22;4.00;;;;;;;-145.00;32.87;71479.78;5067826;28;20055;-74
2023/08/20 10:59:41;;;;;;;6.80;3.90;;;;;;;-145.00;32.01;71502.66;5068122;28;20051;-74
2023/08/20 11:02:15;;;;;;;6.90;3.97;;;;;;;-145.00;31.97;71527.63;5067504;28;20056;-75
2023/08/20 11:04:42;;;;;;;5.40;3.95;;;;;;;-145.00;32.49;71552.59;5067648;28;20037;-75
2023/08/20 11:07:10;;;;;;;7.10;4.00;;;;;;;-145.00;33.12;71550.53;5067533;28;20528;-74
2023/08/20 11:09:39;;;;;;;6.43;4.13;;;;;;;-145.00;33.21;71583.81;5068315;28;20052;-75
2023/08/20 11:12:06;;;;;;;5.75;4.10;;;;;;;-145.00;32.93;71594.22;5067654;28;20047;-73
2023/08/20 11:14:33;;;;;;;5.57;3.95;;;;;;;-145.00;33.09;71615.03;5067863;28;20055;-73
2023/08/20 11:16:59;;;;;;;6.22;3.92;;;;;;;-145.00;33.36;71623.38;5067929;28;20045;-75
2023/08/20 11:19:26;;;;;;;4.30;3.78;;;;;;;-145.00;32.49;71631.69;5066738;28;20052;-74